sensor_id;sensor_type;location;lat;lon;timestamp;temperature;humidity
38118;DHT22;23928;47.562;7.508;2022-09-29T00:02:16;10.30;99.90
38118;DHT22;23928;47.562;7.508;2022-09-29T00:04:42;10.40;99.90
38118;DHT22;23928;47.562;7.508;2022-09-29T00:07:08;10.30;99.90
38118;DHT22;23928;47.562;7.508;2022-09-29T00:09:33;10.30;99.90
38118;DHT22;23928;47.562;7.508;2022-09-29T00:11:59;10.30;99.90
38118;DHT22;23928;47.562;7.508;2022-09-29T00:14:25;10.40;99.90
38118;DHT22;23928;47.562;7.508;2022-09-29T00:16:51;10.40;99.90
38118;DHT22;23928;47.562;7.508;2022-09-29T00:19:18;10.40;99.90
38118;DHT22;23928;47.562;7.508;2022-09-29T00:21:44;10.30;99.90
38118;DHT22;23928;47.562;7.508;2022-09-29T00:24:09;10.30;99.90
38118;DHT22;23928;47.562;7.508;2022-09-29T00:26:35;10.40;99.90
38118;DHT22;23928;47.562;7.508;2022-09-29T00:29:01;10.20;99.90
38118;DHT22;23928;47.562;7.508;2022-09-29T00:31:28;10.10;99.90
38118;DHT22;23928;47.562;7.508;2022-09-29T00:33:55;10.10;99.90
38118;DHT22;23928;47.562;7.508;2022-09-29T00:36:21;10.10;99.90
38118;DHT22;23928;47.562;7.508;2022-09-29T00:38:47;10.20;99.90
38118;DHT22;23928;47.562;7.508;2022-09-29T00:41:19;10.20;99.90
38118;DHT22;23928;47.562;7.508;2022-09-29T00:49:24;10.10;99.90
38118;DHT22;23928;47.562;7.508;2022-09-29T00:54:38;10.10;99.90
38118;DHT22;23928;47.562;7.508;2022-09-29T00:57:08;10.00;99.90
38118;DHT22;23928;47.562;7.508;2022-09-29T01:00:00;10.00;99.90
38118;DHT22;23928;47.562;7.508;2022-09-29T01:02:27;9.90;99.90
38118;DHT22;23928;47.562;7.508;2022-09-29T01:04:54;10.00;99.90
38118;DHT22;23928;47.562;7.508;2022-09-29T01:07:22;10.00;99.90
38118;DHT22;23928;47.562;7.508;2022-09-29T01:09:49;10.00;99.90
38118;DHT22;23928;47.562;7.508;2022-09-29T01:12:16;10.00;99.90
38118;DHT22;23928;47.562;7.508;2022-09-29T01:14:42;10.00;99.90
38118;DHT22;23928;47.562;7.508;2022-09-29T01:17:08;9.90;99.90
38118;DHT22;23928;47.562;7.508;2022-09-29T01:20:10;9.90;99.90
38118;DHT22;23928;47.562;7.508;2022-09-29T01:25:49;9.90;99.90
38118;DHT22;23928;47.562;7.508;2022-09-29T01:33:53;9.90;99.90
38118;DHT22;23928;47.562;7.508;2022-09-29T01:44:35;9.90;99.90
38118;DHT22;23928;47.562;7.508;2022-09-29T01:47:17;9.90;99.90
38118;DHT22;23928;47.562;7.508;2022-09-29T01:49:47;9.80;99.90
38118;DHT22;23928;47.562;7.508;2022-09-29T01:52:21;9.80;99.90
38118;DHT22;23928;47.562;7.508;2022-09-29T01:54:54;9.90;99.90
38118;DHT22;23928;47.562;7.508;2022-09-29T01:57:43;9.90;99.90
38118;DHT22;23928;47.562;7.508;2022-09-29T02:00:11;9.90;99.90
38118;DHT22;23928;47.562;7.508;2022-09-29T02:05:35;9.90;99.90
38118;DHT22;23928;47.562;7.508;2022-09-29T02:08:08;9.90;99.90
38118;DHT22;23928;47.562;7.508;2022-09-29T02:11:12;9.80;99.90
38118;DHT22;23928;47.562;7.508;2022-09-29T02:13:33;9.80;99.90
38118;DHT22;23928;47.562;7.508;2022-09-29T02:16:01;9.90;99.90
38118;DHT22;23928;47.562;7.508;2022-09-29T02:18:33;9.80;99.90
38118;DHT22;23928;47.562;7.508;2022-09-29T02:21:01;9.80;99.90
38118;DHT22;23928;47.562;7.508;2022-09-29T02:23:27;9.80;99.90
38118;DHT22;23928;47.562;7.508;2022-09-29T02:25:53;9.80;99.90
38118;DHT22;23928;47.562;7.508;2022-09-29T02:28:21;9.80;99.90
38118;DHT22;23928;47.562;7.508;2022-09-29T02:30:49;9.70;99.90
38118;DHT22;23928;47.562;7.508;2022-09-29T02:33:22;9.80;99.90
38118;DHT22;23928;47.562;7.508;2022-09-29T02:55:18;9.80;99.90
38118;DHT22;23928;47.562;7.508;2022-09-29T02:57:49;9.80;99.90
38118;DHT22;23928;47.562;7.508;2022-09-29T03:00:17;9.80;99.90
38118;DHT22;23928;47.562;7.508;2022-09-29T03:02:44;9.80;99.90
38118;DHT22;23928;47.562;7.508;2022-09-29T03:05:12;9.80;99.90
38118;DHT22;23928;47.562;7.508;2022-09-29T03:07:39;9.70;99.90
38118;DHT22;23928;47.562;7.508;2022-09-29T03:10:06;9.80;99.90
38118;DHT22;23928;47.562;7.508;2022-09-29T03:12:32;9.80;99.90
38118;DHT22;23928;47.562;7.508;2022-09-29T03:14:58;9.70;99.90
38118;DHT22;23928;47.562;7.508;2022-09-29T03:17:23;9.70;99.90
38118;DHT22;23928;47.562;7.508;2022-09-29T03:19:49;9.70;99.90
38118;DHT22;23928;47.562;7.508;2022-09-29T03:22:15;9.80;99.90
38118;DHT22;23928;47.562;7.508;2022-09-29T03:24:40;9.80;99.90
38118;DHT22;23928;47.562;7.508;2022-09-29T03:27:07;9.80;99.90
38118;DHT22;23928;47.562;7.508;2022-09-29T03:29:34;9.90;99.90
38118;DHT22;23928;47.562;7.508;2022-09-29T03:32:00;9.90;99.90
38118;DHT22;23928;47.562;7.508;2022-09-29T03:34:26;9.90;99.90
38118;DHT22;23928;47.562;7.508;2022-09-29T03:36:51;10.00;99.90
38118;DHT22;23928;47.562;7.508;2022-09-29T03:39:17;10.00;99.90
38118;DHT22;23928;47.562;7.508;2022-09-29T03:41:43;10.00;99.90
38118;DHT22;23928;47.562;7.508;2022-09-29T03:44:08;10.00;99.90
38118;DHT22;23928;47.562;7.508;2022-09-29T03:46:34;9.90;99.90
38118;DHT22;23928;47.562;7.508;2022-09-29T03:48:59;10.00;99.90
38118;DHT22;23928;47.562;7.508;2022-09-29T03:51:25;9.90;99.90
38118;DHT22;23928;47.562;7.508;2022-09-29T03:53:50;10.00;99.90
38118;DHT22;23928;47.562;7.508;2022-09-29T03:56:16;9.90;99.90
38118;DHT22;23928;47.562;7.508;2022-09-29T03:58:42;9.90;99.90
38118;DHT22;23928;47.562;7.508;2022-09-29T04:01:07;10.00;99.90
38118;DHT22;23928;47.562;7.508;2022-09-29T04:03:33;10.00;99.90
38118;DHT22;23928;47.562;7.508;2022-09-29T04:05:58;10.00;99.90
38118;DHT22;23928;47.562;7.508;2022-09-29T04:08:24;10.00;99.90
38118;DHT22;23928;47.562;7.508;2022-09-29T04:10:50;10.00;99.90
38118;DHT22;23928;47.562;7.508;2022-09-29T04:13:15;10.00;99.90
38118;DHT22;23928;47.562;7.508;2022-09-29T04:15:41;9.90;99.90
38118;DHT22;23928;47.562;7.508;2022-09-29T04:18:07;9.90;99.90
38118;DHT22;23928;47.562;7.508;2022-09-29T04:20:32;9.90;99.90
38118;DHT22;23928;47.562;7.508;2022-09-29T04:22:58;9.90;99.90
38118;DHT22;23928;47.562;7.508;2022-09-29T04:25:25;9.90;99.90
38118;DHT22;23928;47.562;7.508;2022-09-29T04:27:52;9.80;99.90
38118;DHT22;23928;47.562;7.508;2022-09-29T04:30:17;9.90;99.90
38118;DHT22;23928;47.562;7.508;2022-09-29T04:32:43;9.80;99.90
38118;DHT22;23928;47.562;7.508;2022-09-29T04:35:09;9.90;99.90
38118;DHT22;23928;47.562;7.508;2022-09-29T04:37:34;9.90;99.90
38118;DHT22;23928;47.562;7.508;2022-09-29T04:40:00;9.90;99.90
38118;DHT22;23928;47.562;7.508;2022-09-29T04:42:27;9.90;99.90
38118;DHT22;23928;47.562;7.508;2022-09-29T04:44:53;9.90;99.90
38118;DHT22;23928;47.562;7.508;2022-09-29T04:47:19;9.80;99.90
38118;DHT22;23928;47.562;7.508;2022-09-29T04:49:44;9.90;99.90
38118;DHT22;23928;47.562;7.508;2022-09-29T04:52:11;9.80;99.90
38118;DHT22;23928;47.562;7.508;2022-09-29T04:54:36;9.90;99.90
38118;DHT22;23928;47.562;7.508;2022-09-29T04:57:02;9.80;99.90
38118;DHT22;23928;47.562;7.508;2022-09-29T04:59:28;9.90;99.90
38118;DHT22;23928;47.562;7.508;2022-09-29T05:01:53;9.90;99.90
38118;DHT22;23928;47.562;7.508;2022-09-29T05:04:19;9.70;99.90
38118;DHT22;23928;47.562;7.508;2022-09-29T05:06:45;9.70;99.90
38118;DHT22;23928;47.562;7.508;2022-09-29T05:09:11;9.70;99.90
38118;DHT22;23928;47.562;7.508;2022-09-29T05:11:36;9.60;99.90
38118;DHT22;23928;47.562;7.508;2022-09-29T05:14:02;9.70;99.90
38118;DHT22;23928;47.562;7.508;2022-09-29T05:16:28;9.80;99.90
38118;DHT22;23928;47.562;7.508;2022-09-29T05:18:54;9.80;99.90
38118;DHT22;23928;47.562;7.508;2022-09-29T05:21:19;9.80;99.90
38118;DHT22;23928;47.562;7.508;2022-09-29T05:23:45;9.80;99.90
38118;DHT22;23928;47.562;7.508;2022-09-29T05:26:12;10.00;99.90
38118;DHT22;23928;47.562;7.508;2022-09-29T05:28:42;10.00;99.90
38118;DHT22;23928;47.562;7.508;2022-09-29T05:31:08;10.10;99.90
38118;DHT22;23928;47.562;7.508;2022-09-29T05:33:35;10.00;99.90
38118;DHT22;23928;47.562;7.508;2022-09-29T05:36:06;10.00;99.90
38118;DHT22;23928;47.562;7.508;2022-09-29T05:38:33;10.00;99.90
38118;DHT22;23928;47.562;7.508;2022-09-29T05:41:03;10.10;99.90
38118;DHT22;23928;47.562;7.508;2022-09-29T05:43:28;10.00;99.90
38118;DHT22;23928;47.562;7.508;2022-09-29T05:45:59;10.00;99.90
38118;DHT22;23928;47.562;7.508;2022-09-29T05:48:26;10.00;99.90
38118;DHT22;23928;47.562;7.508;2022-09-29T05:50:53;10.00;99.90
38118;DHT22;23928;47.562;7.508;2022-09-29T05:53:19;10.00;99.90
38118;DHT22;23928;47.562;7.508;2022-09-29T05:55:44;9.90;99.90
38118;DHT22;23928;47.562;7.508;2022-09-29T05:58:10;9.90;99.90
38118;DHT22;23928;47.562;7.508;2022-09-29T06:00:36;9.90;99.90
38118;DHT22;23928;47.562;7.508;2022-09-29T06:03:01;9.90;99.90
38118;DHT22;23928;47.562;7.508;2022-09-29T06:05:27;10.00;99.90
38118;DHT22;23928;47.562;7.508;2022-09-29T06:07:53;10.00;99.90
38118;DHT22;23928;47.562;7.508;2022-09-29T06:10:20;10.00;99.90
38118;DHT22;23928;47.562;7.508;2022-09-29T06:12:46;10.00;99.90
38118;DHT22;23928;47.562;7.508;2022-09-29T06:15:11;10.00;99.90
38118;DHT22;23928;47.562;7.508;2022-09-29T06:17:37;9.80;99.90
38118;DHT22;23928;47.562;7.508;2022-09-29T06:20:04;9.90;99.90
38118;DHT22;23928;47.562;7.508;2022-09-29T06:22:31;10.00;99.90
38118;DHT22;23928;47.562;7.508;2022-09-29T06:24:57;10.00;99.90
38118;DHT22;23928;47.562;7.508;2022-09-29T06:27:23;10.00;99.90
38118;DHT22;23928;47.562;7.508;2022-09-29T06:29:49;10.10;99.90
38118;DHT22;23928;47.562;7.508;2022-09-29T06:32:14;10.10;99.90
38118;DHT22;23928;47.562;7.508;2022-09-29T06:34:40;10.20;99.90
38118;DHT22;23928;47.562;7.508;2022-09-29T06:37:25;10.20;99.90
38118;DHT22;23928;47.562;7.508;2022-09-29T06:40:04;10.20;99.90
38118;DHT22;23928;47.562;7.508;2022-09-29T06:42:30;10.20;99.90
38118;DHT22;23928;47.562;7.508;2022-09-29T06:44:56;10.30;99.90
38118;DHT22;23928;47.562;7.508;2022-09-29T06:47:22;10.30;99.90
38118;DHT22;23928;47.562;7.508;2022-09-29T06:49:47;10.40;99.90
38118;DHT22;23928;47.562;7.508;2022-09-29T06:52:15;10.40;99.90
38118;DHT22;23928;47.562;7.508;2022-09-29T06:54:41;10.40;99.90
38118;DHT22;23928;47.562;7.508;2022-09-29T06:57:06;10.50;99.90
38118;DHT22;23928;47.562;7.508;2022-09-29T06:59:33;10.60;99.90
38118;DHT22;23928;47.562;7.508;2022-09-29T07:01:58;10.50;99.90
38118;DHT22;23928;47.562;7.508;2022-09-29T07:04:24;10.60;99.90
38118;DHT22;23928;47.562;7.508;2022-09-29T07:06:50;10.60;99.90
38118;DHT22;23928;47.562;7.508;2022-09-29T07:09:16;10.60;99.90
38118;DHT22;23928;47.562;7.508;2022-09-29T07:11:47;10.70;99.90
38118;DHT22;23928;47.562;7.508;2022-09-29T07:14:17;10.70;99.90
38118;DHT22;23928;47.562;7.508;2022-09-29T07:16:44;10.70;99.90
38118;DHT22;23928;47.562;7.508;2022-09-29T07:19:12;10.80;99.90
38118;DHT22;23928;47.562;7.508;2022-09-29T07:21:38;10.80;99.90
38118;DHT22;23928;47.562;7.508;2022-09-29T07:24:04;10.70;99.90
38118;DHT22;23928;47.562;7.508;2022-09-29T07:26:29;10.70;99.90
38118;DHT22;23928;47.562;7.508;2022-09-29T07:28:55;10.70;99.90
38118;DHT22;23928;47.562;7.508;2022-09-29T07:31:21;10.80;99.90
38118;DHT22;23928;47.562;7.508;2022-09-29T07:33:48;10.80;99.90
38118;DHT22;23928;47.562;7.508;2022-09-29T07:36:17;10.70;99.90
38118;DHT22;23928;47.562;7.508;2022-09-29T07:38:47;10.90;99.90
38118;DHT22;23928;47.562;7.508;2022-09-29T07:41:13;11.00;99.90
38118;DHT22;23928;47.562;7.508;2022-09-29T07:43:39;10.90;99.90
38118;DHT22;23928;47.562;7.508;2022-09-29T07:46:05;11.00;99.90
38118;DHT22;23928;47.562;7.508;2022-09-29T07:48:32;10.90;99.90
38118;DHT22;23928;47.562;7.508;2022-09-29T07:53:30;11.00;99.90
38118;DHT22;23928;47.562;7.508;2022-09-29T07:56:02;10.90;99.90
38118;DHT22;23928;47.562;7.508;2022-09-29T07:58:29;11.10;99.90
38118;DHT22;23928;47.562;7.508;2022-09-29T08:00:56;10.90;99.90
38118;DHT22;23928;47.562;7.508;2022-09-29T08:03:22;11.00;99.90
38118;DHT22;23928;47.562;7.508;2022-09-29T08:05:50;10.80;99.90
38118;DHT22;23928;47.562;7.508;2022-09-29T08:08:16;11.00;99.90
38118;DHT22;23928;47.562;7.508;2022-09-29T08:10:42;11.00;99.90
38118;DHT22;23928;47.562;7.508;2022-09-29T08:13:08;11.20;99.90
38118;DHT22;23928;47.562;7.508;2022-09-29T08:15:33;11.30;99.90
38118;DHT22;23928;47.562;7.508;2022-09-29T08:17:59;11.30;99.90
38118;DHT22;23928;47.562;7.508;2022-09-29T08:20:24;11.50;99.90
38118;DHT22;23928;47.562;7.508;2022-09-29T08:22:51;11.60;99.90
38118;DHT22;23928;47.562;7.508;2022-09-29T08:25:18;11.60;99.90
38118;DHT22;23928;47.562;7.508;2022-09-29T08:27:43;11.50;99.90
38118;DHT22;23928;47.562;7.508;2022-09-29T08:30:10;11.40;99.90
38118;DHT22;23928;47.562;7.508;2022-09-29T08:32:36;11.40;99.90
38118;DHT22;23928;47.562;7.508;2022-09-29T08:35:03;11.50;99.90
38118;DHT22;23928;47.562;7.508;2022-09-29T08:37:29;11.40;99.90
38118;DHT22;23928;47.562;7.508;2022-09-29T08:39:55;11.40;99.90
38118;DHT22;23928;47.562;7.508;2022-09-29T08:45:27;11.30;99.90
38118;DHT22;23928;47.562;7.508;2022-09-29T08:48:00;11.40;99.90
38118;DHT22;23928;47.562;7.508;2022-09-29T08:50:35;11.40;99.90
38118;DHT22;23928;47.562;7.508;2022-09-29T08:53:06;11.50;99.90
38118;DHT22;23928;47.562;7.508;2022-09-29T08:55:41;11.50;99.90
38118;DHT22;23928;47.562;7.508;2022-09-29T08:58:12;11.60;99.90
38118;DHT22;23928;47.562;7.508;2022-09-29T09:20:43;11.90;99.90
38118;DHT22;23928;47.562;7.508;2022-09-29T09:25:53;12.00;99.90
38118;DHT22;23928;47.562;7.508;2022-09-29T09:28:44;12.10;99.90
38118;DHT22;23928;47.562;7.508;2022-09-29T09:33:53;12.20;99.90
38118;DHT22;23928;47.562;7.508;2022-09-29T09:36:40;12.20;99.90
38118;DHT22;23928;47.562;7.508;2022-09-29T09:39:15;12.20;99.90
38118;DHT22;23928;47.562;7.508;2022-09-29T09:41:45;12.20;99.90
38118;DHT22;23928;47.562;7.508;2022-09-29T09:44:21;12.20;99.90
38118;DHT22;23928;47.562;7.508;2022-09-29T09:47:11;12.40;99.90
38118;DHT22;23928;47.562;7.508;2022-09-29T09:49:44;12.50;99.90
38118;DHT22;23928;47.562;7.508;2022-09-29T09:52:20;12.50;99.90
38118;DHT22;23928;47.562;7.508;2022-09-29T09:54:52;12.40;99.90
38118;DHT22;23928;47.562;7.508;2022-09-29T10:00:12;12.60;99.90
38118;DHT22;23928;47.562;7.508;2022-09-29T10:02:47;12.70;99.90
38118;DHT22;23928;47.562;7.508;2022-09-29T10:05:19;12.70;99.90
38118;DHT22;23928;47.562;7.508;2022-09-29T10:07:45;12.60;99.90
38118;DHT22;23928;47.562;7.508;2022-09-29T10:10:19;12.80;99.90
38118;DHT22;23928;47.562;7.508;2022-09-29T10:12:46;12.80;99.90
38118;DHT22;23928;47.562;7.508;2022-09-29T10:15:24;12.70;99.90
38118;DHT22;23928;47.562;7.508;2022-09-29T10:18:12;12.60;99.90
38118;DHT22;23928;47.562;7.508;2022-09-29T10:20:39;12.70;99.90
38118;DHT22;23928;47.562;7.508;2022-09-29T10:23:30;13.10;99.90
38118;DHT22;23928;47.562;7.508;2022-09-29T10:26:14;13.30;99.90
38118;DHT22;23928;47.562;7.508;2022-09-29T10:28:50;13.50;99.90
38118;DHT22;23928;47.562;7.508;2022-09-29T10:33:51;13.60;99.90
38118;DHT22;23928;47.562;7.508;2022-09-29T10:36:19;13.70;99.90
38118;DHT22;23928;47.562;7.508;2022-09-29T10:38:48;13.80;99.90
38118;DHT22;23928;47.562;7.508;2022-09-29T10:41:14;13.80;99.90
38118;DHT22;23928;47.562;7.508;2022-09-29T10:43:42;13.60;99.90
38118;DHT22;23928;47.562;7.508;2022-09-29T10:46:35;13.80;99.90
38118;DHT22;23928;47.562;7.508;2022-09-29T10:49:27;13.90;99.90
38118;DHT22;23928;47.562;7.508;2022-09-29T10:54:26;14.00;99.90
38118;DHT22;23928;47.562;7.508;2022-09-29T10:56:54;14.20;99.90
38118;DHT22;23928;47.562;7.508;2022-09-29T10:59:21;13.90;99.90
38118;DHT22;23928;47.562;7.508;2022-09-29T11:01:57;14.10;99.90
38118;DHT22;23928;47.562;7.508;2022-09-29T11:04:32;14.10;99.90
38118;DHT22;23928;47.562;7.508;2022-09-29T11:07:10;14.10;99.90
38118;DHT22;23928;47.562;7.508;2022-09-29T11:09:39;14.20;99.90
38118;DHT22;23928;47.562;7.508;2022-09-29T11:12:10;14.20;99.90
38118;DHT22;23928;47.562;7.508;2022-09-29T11:14:48;13.90;99.90
38118;DHT22;23928;47.562;7.508;2022-09-29T11:19:49;14.00;99.90
38118;DHT22;23928;47.562;7.508;2022-09-29T11:25:30;14.00;99.90
38118;DHT22;23928;47.562;7.508;2022-09-29T11:28:17;14.30;99.90
38118;DHT22;23928;47.562;7.508;2022-09-29T11:36:21;14.00;99.90
38118;DHT22;23928;47.562;7.508;2022-09-29T11:41:48;13.70;99.90
38118;DHT22;23928;47.562;7.508;2022-09-29T11:47:22;14.50;99.90
38118;DHT22;23928;47.562;7.508;2022-09-29T11:49:59;14.20;99.90
38118;DHT22;23928;47.562;7.508;2022-09-29T11:52:31;13.60;99.90
38118;DHT22;23928;47.562;7.508;2022-09-29T12:00:15;14.20;99.90
38118;DHT22;23928;47.562;7.508;2022-09-29T12:14:47;14.50;99.90
38118;DHT22;23928;47.562;7.508;2022-09-29T12:17:16;14.60;99.90
38118;DHT22;23928;47.562;7.508;2022-09-29T12:19:43;14.60;99.90
38118;DHT22;23928;47.562;7.508;2022-09-29T12:22:14;14.60;99.90
38118;DHT22;23928;47.562;7.508;2022-09-29T12:24:49;14.70;99.90
38118;DHT22;23928;47.562;7.508;2022-09-29T12:27:23;14.70;99.90
38118;DHT22;23928;47.562;7.508;2022-09-29T12:30:02;14.40;99.90
38118;DHT22;23928;47.562;7.508;2022-09-29T12:32:34;14.30;99.90
38118;DHT22;23928;47.562;7.508;2022-09-29T12:35:11;14.10;99.90
38118;DHT22;23928;47.562;7.508;2022-09-29T12:37:46;14.20;99.90
38118;DHT22;23928;47.562;7.508;2022-09-29T12:40:24;14.00;99.90
38118;DHT22;23928;47.562;7.508;2022-09-29T12:45:58;14.10;99.90
38118;DHT22;23928;47.562;7.508;2022-09-29T12:51:38;13.90;99.90
38118;DHT22;23928;47.562;7.508;2022-09-29T12:59:54;14.10;99.90
38118;DHT22;23928;47.562;7.508;2022-09-29T13:08:04;14.30;99.90
38118;DHT22;23928;47.562;7.508;2022-09-29T13:10:43;14.30;99.90
38118;DHT22;23928;47.562;7.508;2022-09-29T13:27:16;14.20;99.90
38118;DHT22;23928;47.562;7.508;2022-09-29T13:30:12;13.90;99.90
38118;DHT22;23928;47.562;7.508;2022-09-29T13:32:54;13.80;99.90
38118;DHT22;23928;47.562;7.508;2022-09-29T13:35:22;13.50;99.90
38118;DHT22;23928;47.562;7.508;2022-09-29T13:38:02;13.60;99.90
38118;DHT22;23928;47.562;7.508;2022-09-29T13:40:29;13.60;99.90
38118;DHT22;23928;47.562;7.508;2022-09-29T13:43:00;13.50;99.90
38118;DHT22;23928;47.562;7.508;2022-09-29T13:48:00;13.30;99.90
38118;DHT22;23928;47.562;7.508;2022-09-29T13:50:44;13.30;99.90
38118;DHT22;23928;47.562;7.508;2022-09-29T13:58:30;13.20;99.90
38118;DHT22;23928;47.562;7.508;2022-09-29T14:00:59;13.30;99.90
38118;DHT22;23928;47.562;7.508;2022-09-29T14:03:37;13.30;99.90
38118;DHT22;23928;47.562;7.508;2022-09-29T14:06:15;13.30;99.90
38118;DHT22;23928;47.562;7.508;2022-09-29T14:09:00;13.30;99.90
38118;DHT22;23928;47.562;7.508;2022-09-29T14:11:42;13.30;99.90
38118;DHT22;23928;47.562;7.508;2022-09-29T14:17:06;13.20;99.90
38118;DHT22;23928;47.562;7.508;2022-09-29T14:27:42;13.20;99.90
38118;DHT22;23928;47.562;7.508;2022-09-29T14:32:50;13.20;99.90
38118;DHT22;23928;47.562;7.508;2022-09-29T14:37:57;13.00;99.90
38118;DHT22;23928;47.562;7.508;2022-09-29T14:40:24;12.90;99.90
38118;DHT22;23928;47.562;7.508;2022-09-29T14:43:15;13.00;99.90
38118;DHT22;23928;47.562;7.508;2022-09-29T14:54:53;13.00;99.90
38118;DHT22;23928;47.562;7.508;2022-09-29T14:57:35;13.00;99.90
38118;DHT22;23928;47.562;7.508;2022-09-29T15:00:19;13.00;99.90
38118;DHT22;23928;47.562;7.508;2022-09-29T15:02:50;13.00;99.90
38118;DHT22;23928;47.562;7.508;2022-09-29T15:05:30;13.00;99.90
38118;DHT22;23928;47.562;7.508;2022-09-29T15:07:57;13.00;99.90
38118;DHT22;23928;47.562;7.508;2022-09-29T15:10:28;12.90;99.90
38118;DHT22;23928;47.562;7.508;2022-09-29T15:15:54;12.80;99.90
38118;DHT22;23928;47.562;7.508;2022-09-29T15:20:54;12.70;99.90
38118;DHT22;23928;47.562;7.508;2022-09-29T15:23:49;12.70;99.90
38118;DHT22;23928;47.562;7.508;2022-09-29T15:26:17;12.40;99.90
38118;DHT22;23928;47.562;7.508;2022-09-29T15:28:44;12.30;99.90
38118;DHT22;23928;47.562;7.508;2022-09-29T15:31:17;12.20;99.90
38118;DHT22;23928;47.562;7.508;2022-09-29T15:33:44;12.20;99.90
38118;DHT22;23928;47.562;7.508;2022-09-29T15:36:24;12.40;99.90
38118;DHT22;23928;47.562;7.508;2022-09-29T15:38:52;12.40;99.90
38118;DHT22;23928;47.562;7.508;2022-09-29T15:41:20;12.30;99.90
38118;DHT22;23928;47.562;7.508;2022-09-29T15:46:21;12.40;99.90
38118;DHT22;23928;47.562;7.508;2022-09-29T15:49:08;12.30;99.90
38118;DHT22;23928;47.562;7.508;2022-09-29T15:51:35;12.50;99.90
38118;DHT22;23928;47.562;7.508;2022-09-29T15:54:05;12.50;99.90
38118;DHT22;23928;47.562;7.508;2022-09-29T15:56:37;12.50;99.90
38118;DHT22;23928;47.562;7.508;2022-09-29T16:02:14;12.40;99.90
38118;DHT22;23928;47.562;7.508;2022-09-29T16:04:42;12.40;99.90
38118;DHT22;23928;47.562;7.508;2022-09-29T16:07:17;12.40;99.90
38118;DHT22;23928;47.562;7.508;2022-09-29T16:09:43;12.50;99.90
38118;DHT22;23928;47.562;7.508;2022-09-29T16:12:13;12.40;99.90
38118;DHT22;23928;47.562;7.508;2022-09-29T16:14:41;12.40;99.90
38118;DHT22;23928;47.562;7.508;2022-09-29T16:17:07;12.40;99.90
38118;DHT22;23928;47.562;7.508;2022-09-29T16:19:33;12.50;99.90
38118;DHT22;23928;47.562;7.508;2022-09-29T16:22:03;12.40;99.90
38118;DHT22;23928;47.562;7.508;2022-09-29T16:24:33;12.40;99.90
38118;DHT22;23928;47.562;7.508;2022-09-29T16:26:59;12.40;99.90
38118;DHT22;23928;47.562;7.508;2022-09-29T16:29:27;12.40;99.90
38118;DHT22;23928;47.562;7.508;2022-09-29T16:31:53;12.30;99.90
38118;DHT22;23928;47.562;7.508;2022-09-29T16:37:34;12.30;99.90
38118;DHT22;23928;47.562;7.508;2022-09-29T16:39:47;12.30;99.90
38118;DHT22;23928;47.562;7.508;2022-09-29T16:42:25;12.20;99.90
38118;DHT22;23928;47.562;7.508;2022-09-29T16:44:52;12.10;99.90
38118;DHT22;23928;47.562;7.508;2022-09-29T16:47:28;12.00;99.90
38118;DHT22;23928;47.562;7.508;2022-09-29T16:49:59;12.00;99.90
38118;DHT22;23928;47.562;7.508;2022-09-29T16:52:45;12.00;99.90
38118;DHT22;23928;47.562;7.508;2022-09-29T16:55:24;11.90;99.90
38118;DHT22;23928;47.562;7.508;2022-09-29T16:58:02;11.90;99.90
38118;DHT22;23928;47.562;7.508;2022-09-29T17:00:29;11.80;99.90
38118;DHT22;23928;47.562;7.508;2022-09-29T17:02:55;11.80;99.90
38118;DHT22;23928;47.562;7.508;2022-09-29T17:05:23;11.70;99.90
38118;DHT22;23928;47.562;7.508;2022-09-29T17:07:50;11.60;99.90
38118;DHT22;23928;47.562;7.508;2022-09-29T17:10:20;11.60;99.90
38118;DHT22;23928;47.562;7.508;2022-09-29T17:12:46;11.60;99.90
38118;DHT22;23928;47.562;7.508;2022-09-29T17:15:13;11.60;99.90
38118;DHT22;23928;47.562;7.508;2022-09-29T17:17:39;11.50;99.90
38118;DHT22;23928;47.562;7.508;2022-09-29T17:20:13;11.60;99.90
38118;DHT22;23928;47.562;7.508;2022-09-29T17:22:39;11.60;99.90
38118;DHT22;23928;47.562;7.508;2022-09-29T17:25:05;11.50;99.90
38118;DHT22;23928;47.562;7.508;2022-09-29T17:27:31;11.50;99.90
38118;DHT22;23928;47.562;7.508;2022-09-29T17:30:18;11.50;99.90
38118;DHT22;23928;47.562;7.508;2022-09-29T17:32:47;11.40;99.90
38118;DHT22;23928;47.562;7.508;2022-09-29T17:35:14;11.30;99.90
38118;DHT22;23928;47.562;7.508;2022-09-29T17:37:40;11.30;99.90
38118;DHT22;23928;47.562;7.508;2022-09-29T17:42:46;11.50;99.90
38118;DHT22;23928;47.562;7.508;2022-09-29T17:45:13;11.40;99.90
38118;DHT22;23928;47.562;7.508;2022-09-29T17:47:43;11.30;99.90
38118;DHT22;23928;47.562;7.508;2022-09-29T17:52:44;11.10;99.90
38118;DHT22;23928;47.562;7.508;2022-09-29T17:55:10;11.20;99.90
38118;DHT22;23928;47.562;7.508;2022-09-29T17:57:36;11.20;99.90
38118;DHT22;23928;47.562;7.508;2022-09-29T18:00:22;11.30;99.90
38118;DHT22;23928;47.562;7.508;2022-09-29T18:02:49;11.20;99.90
38118;DHT22;23928;47.562;7.508;2022-09-29T18:05:17;11.20;99.90
38118;DHT22;23928;47.562;7.508;2022-09-29T18:07:52;11.10;99.90
38118;DHT22;23928;47.562;7.508;2022-09-29T18:10:42;11.00;99.90
38118;DHT22;23928;47.562;7.508;2022-09-29T18:13:08;11.00;99.90
38118;DHT22;23928;47.562;7.508;2022-09-29T18:15:34;10.90;99.90
38118;DHT22;23928;47.562;7.508;2022-09-29T18:18:02;10.90;99.90
38118;DHT22;23928;47.562;7.508;2022-09-29T18:20:30;10.80;99.90
38118;DHT22;23928;47.562;7.508;2022-09-29T18:22:56;10.80;99.90
38118;DHT22;23928;47.562;7.508;2022-09-29T18:25:27;10.80;99.90
38118;DHT22;23928;47.562;7.508;2022-09-29T18:27:53;10.80;99.90
38118;DHT22;23928;47.562;7.508;2022-09-29T18:30:20;10.90;99.90
38118;DHT22;23928;47.562;7.508;2022-09-29T18:32:48;11.00;99.90
38118;DHT22;23928;47.562;7.508;2022-09-29T18:35:17;10.90;99.90
38118;DHT22;23928;47.562;7.508;2022-09-29T18:37:43;10.70;99.90
38118;DHT22;23928;47.562;7.508;2022-09-29T18:40:10;10.80;99.90
38118;DHT22;23928;47.562;7.508;2022-09-29T18:42:40;10.90;99.90
38118;DHT22;23928;47.562;7.508;2022-09-29T18:45:12;10.90;99.90
38118;DHT22;23928;47.562;7.508;2022-09-29T18:47:44;10.90;99.90
38118;DHT22;23928;47.562;7.508;2022-09-29T18:50:15;10.90;99.90
38118;DHT22;23928;47.562;7.508;2022-09-29T18:52:47;10.70;99.90
38118;DHT22;23928;47.562;7.508;2022-09-29T18:55:15;10.80;99.90
38118;DHT22;23928;47.562;7.508;2022-09-29T18:57:42;10.80;99.90
38118;DHT22;23928;47.562;7.508;2022-09-29T19:00:10;10.70;99.90
38118;DHT22;23928;47.562;7.508;2022-09-29T19:02:37;10.80;99.90
38118;DHT22;23928;47.562;7.508;2022-09-29T19:05:03;10.70;99.90
38118;DHT22;23928;47.562;7.508;2022-09-29T19:07:29;10.70;99.90
38118;DHT22;23928;47.562;7.508;2022-09-29T19:09:55;10.70;99.90
38118;DHT22;23928;47.562;7.508;2022-09-29T19:12:20;10.70;99.90
38118;DHT22;23928;47.562;7.508;2022-09-29T19:14:52;10.60;99.90
38118;DHT22;23928;47.562;7.508;2022-09-29T19:17:18;10.60;99.90